createdAt,value
2024-02-07T00:00:06.332Z,12.55
2024-02-07T00:02:33.881Z,12.54
2024-02-07T00:05:00.447Z,12.51
2024-02-07T00:07:27.186Z,12.50
2024-02-07T00:09:53.749Z,12.42
2024-02-07T00:12:20.245Z,12.40
2024-02-07T00:14:46.787Z,12.36
2024-02-07T00:17:13.520Z,12.35
2024-02-07T00:19:40.107Z,12.30
2024-02-07T00:22:06.971Z,12.28
2024-02-07T00:24:33.494Z,12.32
2024-02-07T00:26:59.959Z,12.24
2024-02-07T00:29:26.455Z,12.26
2024-02-07T00:31:52.956Z,12.24
2024-02-07T00:34:19.615Z,12.24
2024-02-07T00:36:46.111Z,12.20
2024-02-07T00:39:12.642Z,12.23
2024-02-07T00:41:39.230Z,12.23
2024-02-07T00:44:05.715Z,12.23
2024-02-07T00:46:33.034Z,12.25
2024-02-07T00:49:00.324Z,12.26
2024-02-07T00:51:26.799Z,12.21
2024-02-07T00:53:53.258Z,12.19
2024-02-07T00:56:19.973Z,12.18
2024-02-07T00:58:46.672Z,12.13
2024-02-07T01:01:14.140Z,12.16
2024-02-07T01:03:40.771Z,12.16
2024-02-07T01:06:08.058Z,12.17
2024-02-07T01:08:34.667Z,12.21
2024-02-07T01:11:01.175Z,12.18
2024-02-07T01:13:28.164Z,12.18
2024-02-07T01:15:54.755Z,12.12
2024-02-07T01:18:21.301Z,12.17
2024-02-07T01:20:47.875Z,12.18
2024-02-07T01:23:14.355Z,12.14
2024-02-07T01:25:41.930Z,12.16
2024-02-07T01:28:09.788Z,12.17
2024-02-07T01:30:36.407Z,12.16
2024-02-07T01:33:03.430Z,12.11
2024-02-07T01:35:31.711Z,12.13
2024-02-07T01:38:06.128Z,12.13
2024-02-07T01:40:43.679Z,12.14
2024-02-07T01:43:13.786Z,12.11
2024-02-07T01:45:40.959Z,12.12
2024-02-07T01:48:09.564Z,12.11
2024-02-07T01:50:37.805Z,12.11
2024-02-07T01:53:06.462Z,12.09
2024-02-07T01:55:33.980Z,12.09
2024-02-07T01:58:01.705Z,12.12
2024-02-07T02:00:29.147Z,12.08
2024-02-07T02:02:55.670Z,12.08
2024-02-07T02:05:22.149Z,12.11
2024-02-07T02:07:49.636Z,12.09
2024-02-07T02:10:16.656Z,12.05
2024-02-07T02:12:43.460Z,12.05
2024-02-07T02:15:10.160Z,12.01
2024-02-07T02:17:36.945Z,12.04
2024-02-07T02:20:09.040Z,12.04
2024-02-07T02:22:48.191Z,12.03
2024-02-07T02:25:44.014Z,12.04
2024-02-07T02:28:26.220Z,12.05
2024-02-07T02:30:58.997Z,12.04
2024-02-07T02:33:31.995Z,12.05
2024-02-07T02:36:01.121Z,12.05
2024-02-07T02:38:28.566Z,12.05
2024-02-07T02:40:55.837Z,12.04
2024-02-07T02:43:24.051Z,12.05
2024-02-07T02:45:52.953Z,12.06
2024-02-07T02:48:19.788Z,12.09
2024-02-07T02:50:47.121Z,12.10
2024-02-07T02:53:14.040Z,12.12
2024-02-07T02:55:41.048Z,12.07
2024-02-07T02:58:07.740Z,12.09
2024-02-07T03:00:34.356Z,12.09
2024-02-07T03:03:03.552Z,12.06
2024-02-07T03:05:40.173Z,12.04
2024-02-07T03:08:30.150Z,12.04
2024-02-07T03:10:57.133Z,12.06
2024-02-07T03:13:25.596Z,12.04
2024-02-07T03:15:53.493Z,12.05
2024-02-07T03:18:21.823Z,12.05
2024-02-07T03:20:50.630Z,12.04
2024-02-07T03:23:17.219Z,12.01
2024-02-07T03:25:44.087Z,12.01
2024-02-07T03:28:16.211Z,12.01
2024-02-07T03:30:42.890Z,12.01
2024-02-07T03:33:09.420Z,12.00
2024-02-07T03:35:35.962Z,12.02
2024-02-07T03:38:02.529Z,12.05
2024-02-07T03:40:29.257Z,12.05
2024-02-07T03:42:55.842Z,12.04
2024-02-07T03:45:23.106Z,12.03
2024-02-07T03:47:49.605Z,12.01
2024-02-07T03:50:16.737Z,12.02
2024-02-07T03:52:44.617Z,12.05
2024-02-07T03:55:13.677Z,12.07
2024-02-07T03:57:43.662Z,12.02
2024-02-07T04:00:14.902Z,12.02
2024-02-07T04:02:48.681Z,12.02
2024-02-07T04:05:17.408Z,12.01
2024-02-07T04:07:44.326Z,12.00
2024-02-07T04:10:12.603Z,12.02
2024-02-07T04:12:40.198Z,12.04
2024-02-07T04:15:26.741Z,12.05
2024-02-07T04:18:15.931Z,12.05
2024-02-07T04:21:05.168Z,12.05
2024-02-07T04:23:50.977Z,12.05
2024-02-07T04:26:44.051Z,12.08
2024-02-07T04:29:29.473Z,12.04
2024-02-07T04:32:14.555Z,12.03
2024-02-07T04:35:00.215Z,12.02
2024-02-07T04:37:47.145Z,12.04
2024-02-07T04:40:33.116Z,12.05
2024-02-07T04:43:18.580Z,12.00
2024-02-07T04:46:03.516Z,12.06
2024-02-07T04:48:48.487Z,12.03
2024-02-07T04:51:33.330Z,12.03
2024-02-07T04:54:18.619Z,12.00
2024-02-07T04:57:03.548Z,12.01
2024-02-07T04:59:48.425Z,12.01
2024-02-07T05:02:33.893Z,12.06
2024-02-07T05:05:19.177Z,11.99
2024-02-07T05:08:04.195Z,12.00
2024-02-07T05:10:49.425Z,12.01
2024-02-07T05:13:34.550Z,12.00
2024-02-07T05:16:01.131Z,11.96
2024-02-07T05:18:27.744Z,11.95
2024-02-07T05:20:54.728Z,11.98
2024-02-07T05:23:21.637Z,11.99
2024-02-07T05:25:49.538Z,12.02
2024-02-07T05:28:16.574Z,12.01
2024-02-07T05:30:43.343Z,12.00
2024-02-07T05:33:10.449Z,11.98
2024-02-07T05:35:37.854Z,11.92
2024-02-07T05:38:04.804Z,11.96
2024-02-07T05:40:31.840Z,11.98
2024-02-07T05:43:00.399Z,11.97
2024-02-07T05:45:26.868Z,11.97
2024-02-07T05:47:53.357Z,11.96
2024-02-07T05:50:19.992Z,11.98
2024-02-07T05:52:46.583Z,11.97
2024-02-07T05:55:13.236Z,11.95
2024-02-07T05:57:39.767Z,11.94
2024-02-07T06:00:09.992Z,11.96
2024-02-07T06:02:36.517Z,11.91
2024-02-07T06:05:04.513Z,11.91
2024-02-07T06:07:32.359Z,11.95
2024-02-07T06:09:59.528Z,11.98
2024-02-07T06:12:26.145Z,11.92
2024-02-07T06:14:53.172Z,11.97
2024-02-07T06:17:19.832Z,11.98
2024-02-07T06:19:46.494Z,12.02
2024-02-07T06:22:13.612Z,12.01
2024-02-07T06:24:40.165Z,12.03
2024-02-07T06:27:06.810Z,12.01
2024-02-07T06:29:33.306Z,12.05
2024-02-07T06:32:00.636Z,12.04
2024-02-07T06:34:27.353Z,12.01
2024-02-07T06:36:54.566Z,12.02
2024-02-07T06:39:21.224Z,12.01
2024-02-07T06:41:47.716Z,11.93
2024-02-07T06:44:14.175Z,11.89
2024-02-07T06:46:43.973Z,11.88
2024-02-07T06:49:10.862Z,11.84
2024-02-07T06:51:37.448Z,11.82
2024-02-07T06:54:03.998Z,11.86
2024-02-07T06:56:30.489Z,11.84
2024-02-07T06:58:57.007Z,11.83
2024-02-07T07:01:23.700Z,11.80
2024-02-07T07:03:52.888Z,11.81
2024-02-07T07:06:19.659Z,11.80
2024-02-07T07:08:46.241Z,11.80
2024-02-07T07:11:12.759Z,11.85
2024-02-07T07:13:39.268Z,11.83
2024-02-07T07:16:08.076Z,11.87
2024-02-07T07:18:34.574Z,11.87
2024-02-07T07:21:01.162Z,11.86
2024-02-07T07:23:27.773Z,11.91
2024-02-07T07:25:54.416Z,11.79
2024-02-07T07:28:21.064Z,11.76
2024-02-07T07:30:48.299Z,11.71
2024-02-07T07:33:14.800Z,11.48
2024-02-07T07:35:41.636Z,11.28
2024-02-07T07:38:10.278Z,11.10
2024-02-07T07:40:40.584Z,10.92
2024-02-07T07:43:07.593Z,10.66
2024-02-07T07:45:34.144Z,10.57
2024-02-07T07:48:00.779Z,10.46
2024-02-07T07:50:27.394Z,10.32
2024-02-07T07:52:53.995Z,10.12
2024-02-07T07:55:20.755Z,10.01
2024-02-07T07:57:47.363Z,9.86
2024-02-07T08:00:14.182Z,9.83
2024-02-07T08:02:40.715Z,9.76
2024-02-07T08:05:07.632Z,9.70
2024-02-07T08:07:34.343Z,9.62
2024-02-07T08:10:00.950Z,9.61
2024-02-07T08:12:27.469Z,9.54
2024-02-07T08:14:53.987Z,9.52
2024-02-07T08:17:20.559Z,9.50
2024-02-07T08:19:47.901Z,9.49
2024-02-07T08:22:14.863Z,9.49
2024-02-07T08:24:41.429Z,9.49
2024-02-07T08:27:08.129Z,9.49
2024-02-07T08:29:34.592Z,9.47
2024-02-07T08:32:02.169Z,9.47
2024-02-07T08:34:29.200Z,9.48
2024-02-07T08:36:55.871Z,9.49
2024-02-07T08:39:22.391Z,9.51
2024-02-07T08:41:48.945Z,9.50
2024-02-07T08:44:15.464Z,9.53
2024-02-07T08:46:44.682Z,9.49
2024-02-07T08:49:11.459Z,9.46
2024-02-07T08:51:38.762Z,9.49
2024-02-07T08:54:05.407Z,9.42
2024-02-07T08:56:31.955Z,9.36
2024-02-07T08:58:58.531Z,9.32
2024-02-07T09:01:25.299Z,9.26
2024-02-07T09:03:51.926Z,9.23
2024-02-07T09:06:18.601Z,9.16
2024-02-07T09:08:45.463Z,9.15
2024-02-07T09:11:12.030Z,9.14
2024-02-07T09:13:38.569Z,9.09
2024-02-07T09:16:05.496Z,9.03
2024-02-07T09:18:32.273Z,8.92
2024-02-07T09:20:59.011Z,8.84
2024-02-07T09:23:25.518Z,8.76
2024-02-07T09:25:52.099Z,8.67
2024-02-07T09:28:18.761Z,8.65
2024-02-07T09:30:45.269Z,8.60
2024-02-07T09:33:12.147Z,8.58
2024-02-07T09:35:38.925Z,8.58
2024-02-07T09:38:05.618Z,8.57
2024-02-07T09:40:32.489Z,8.57
2024-02-07T09:43:01.502Z,8.56
2024-02-07T09:45:33.626Z,8.59
2024-02-07T09:48:29.640Z,8.59
2024-02-07T09:51:00.636Z,8.60
2024-02-07T09:53:28.400Z,8.58
2024-02-07T09:55:55.601Z,8.60
2024-02-07T09:58:22.766Z,8.61
2024-02-07T10:00:53.355Z,8.57
2024-02-07T10:03:27.009Z,8.55
2024-02-07T10:05:57.196Z,8.49
2024-02-07T10:08:29.320Z,8.39
2024-02-07T10:10:56.105Z,8.35
2024-02-07T10:13:23.411Z,8.25
2024-02-07T10:15:50.007Z,8.21
2024-02-07T10:18:16.875Z,8.20
2024-02-07T10:20:54.183Z,8.12
2024-02-07T10:23:22.025Z,8.14
2024-02-07T10:25:53.345Z,8.14
2024-02-07T10:28:20.710Z,8.11
2024-02-07T10:31:00.680Z,8.10
2024-02-07T10:33:55.641Z,8.05
2024-02-07T10:36:25.693Z,8.01
2024-02-07T10:39:03.765Z,7.95
2024-02-07T10:41:30.632Z,7.96
2024-02-07T10:44:08.048Z,7.99
2024-02-07T10:46:34.997Z,7.93
2024-02-07T10:49:04.336Z,7.87
2024-02-07T10:51:34.160Z,7.84
2024-02-07T10:54:10.543Z,7.80
2024-02-07T10:56:41.317Z,7.74
2024-02-07T10:59:07.846Z,7.74
2024-02-07T11:01:34.973Z,7.67
2024-02-07T11:04:02.295Z,7.66
2024-02-07T11:06:29.606Z,7.67
2024-02-07T11:08:58.008Z,7.67
2024-02-07T11:11:29.295Z,7.66
2024-02-07T11:13:58.902Z,7.61
2024-02-07T11:16:25.825Z,7.63
2024-02-07T11:18:53.248Z,7.63
2024-02-07T11:21:24.354Z,7.61
2024-02-07T11:23:53.972Z,7.62
2024-02-07T11:26:22.453Z,7.68
2024-02-07T11:28:49.312Z,7.71
2024-02-07T11:31:18.333Z,7.70
2024-02-07T11:33:48.793Z,7.71
2024-02-07T11:36:17.432Z,7.69
2024-02-07T11:38:55.005Z,7.70
2024-02-07T11:41:22.126Z,7.74
2024-02-07T11:43:55.445Z,7.78
2024-02-07T11:46:23.831Z,7.83
2024-02-07T11:48:55.285Z,7.90
2024-02-07T11:51:24.421Z,7.94
2024-02-07T11:53:56.637Z,7.98
2024-02-07T11:56:23.372Z,8.01
2024-02-07T11:58:58.559Z,8.03
2024-02-07T12:01:27.253Z,8.00
2024-02-07T12:03:57.506Z,8.00
2024-02-07T12:06:25.026Z,7.99
2024-02-07T12:08:51.616Z,7.97
2024-02-07T12:11:18.235Z,7.95
2024-02-07T12:13:44.873Z,7.94
2024-02-07T12:16:14.545Z,7.94
2024-02-07T12:18:44.833Z,7.94
2024-02-07T12:21:11.703Z,7.92
2024-02-07T12:23:39.046Z,7.92
2024-02-07T12:26:05.864Z,7.92
2024-02-07T12:28:32.570Z,7.91
2024-02-07T12:31:00.725Z,7.90
2024-02-07T12:33:28.464Z,7.87
2024-02-07T12:35:56.429Z,7.79
2024-02-07T12:38:23.924Z,7.79
2024-02-07T12:40:52.511Z,7.77
2024-02-07T12:43:30.107Z,7.78
2024-02-07T12:45:58.668Z,7.77
2024-02-07T12:48:29.074Z,7.75
2024-02-07T12:50:57.068Z,7.74
2024-02-07T12:53:23.826Z,7.74
2024-02-07T12:55:51.438Z,7.73
2024-02-07T12:58:18.274Z,7.70
2024-02-07T13:00:45.574Z,7.68
2024-02-07T13:03:13.058Z,7.65
2024-02-07T13:05:40.611Z,7.64
2024-02-07T13:08:10.774Z,7.62
2024-02-07T13:10:39.390Z,7.59
2024-02-07T13:13:07.021Z,7.54
2024-02-07T13:15:33.713Z,7.54
2024-02-07T13:18:00.328Z,7.54
2024-02-07T13:20:27.002Z,7.55
2024-02-07T13:22:53.882Z,7.55
2024-02-07T13:25:22.854Z,7.57
2024-02-07T13:27:49.402Z,7.58
2024-02-07T13:30:17.541Z,7.61
2024-02-07T13:32:45.967Z,7.60
2024-02-07T13:35:12.703Z,7.57
2024-02-07T13:37:39.255Z,7.54
2024-02-07T13:40:06.427Z,7.48
2024-02-07T13:42:32.984Z,7.44
2024-02-07T13:44:59.434Z,7.34
2024-02-07T13:47:25.893Z,7.31
2024-02-07T13:49:52.678Z,7.32
2024-02-07T13:52:19.526Z,7.31
2024-02-07T13:54:46.033Z,7.29
2024-02-07T13:57:12.526Z,7.25
2024-02-07T13:59:39.140Z,7.24
2024-02-07T14:02:05.828Z,7.22
2024-02-07T14:04:32.393Z,7.19
2024-02-07T14:06:59.095Z,7.14
2024-02-07T14:09:25.717Z,7.11
2024-02-07T14:11:52.253Z,7.04
2024-02-07T14:14:18.787Z,7.01
2024-02-07T14:16:45.323Z,6.92
2024-02-07T14:19:11.909Z,6.87
2024-02-07T14:21:38.506Z,6.85
2024-02-07T14:24:05.329Z,6.81
2024-02-07T14:26:32.853Z,6.83
2024-02-07T14:28:59.495Z,6.87
2024-02-07T14:31:26.300Z,6.88
2024-02-07T14:33:52.880Z,6.90
2024-02-07T14:36:20.618Z,6.91
2024-02-07T14:38:47.239Z,6.88
2024-02-07T14:41:13.951Z,6.86
2024-02-07T14:43:41.725Z,6.83
2024-02-07T14:46:08.227Z,6.78
2024-02-07T14:48:35.065Z,6.80
2024-02-07T14:51:01.696Z,6.76
2024-02-07T14:53:28.188Z,6.72
2024-02-07T14:55:59.757Z,6.70
2024-02-07T14:58:28.121Z,6.66
2024-02-07T15:00:55.030Z,6.67
2024-02-07T15:03:22.075Z,6.68
2024-02-07T15:05:48.717Z,6.61
2024-02-07T15:08:16.212Z,6.61
2024-02-07T15:10:43.432Z,6.62
2024-02-07T15:13:09.989Z,6.64
2024-02-07T15:15:38.283Z,6.66
2024-02-07T15:18:06.427Z,6.67
2024-02-07T15:20:32.985Z,6.69
2024-02-07T15:22:59.577Z,6.70
2024-02-07T15:25:26.200Z,6.68
2024-02-07T15:27:53.281Z,6.69
2024-02-07T15:30:19.822Z,6.67
2024-02-07T15:32:46.406Z,6.69
2024-02-07T15:35:13.760Z,6.66
2024-02-07T15:37:40.691Z,6.64
2024-02-07T15:40:09.337Z,6.63
2024-02-07T15:42:35.957Z,6.60
2024-02-07T15:45:02.450Z,6.56
2024-02-07T15:47:28.919Z,6.55
2024-02-07T15:49:55.532Z,6.53
2024-02-07T15:52:22.419Z,6.52
2024-02-07T15:54:48.934Z,6.51
2024-02-07T15:57:15.408Z,6.47
2024-02-07T15:59:41.933Z,6.45
2024-02-07T16:02:08.544Z,6.45
2024-02-07T16:04:35.094Z,6.44
2024-02-07T16:07:02.609Z,6.44
2024-02-07T16:09:29.446Z,6.43
2024-02-07T16:11:56.346Z,6.44
2024-02-07T16:14:23.014Z,6.45
2024-02-07T16:16:49.528Z,6.45
2024-02-07T16:19:16.319Z,6.46
2024-02-07T16:21:42.839Z,6.46
2024-02-07T16:24:10.005Z,6.44
2024-02-07T16:26:36.615Z,6.40
2024-02-07T16:29:03.347Z,6.36
2024-02-07T16:31:30.201Z,6.34
2024-02-07T16:33:56.730Z,6.34
2024-02-07T16:36:23.443Z,6.33
2024-02-07T16:38:49.953Z,6.33
2024-02-07T16:41:16.489Z,6.33
2024-02-07T16:43:45.017Z,6.35
2024-02-07T16:46:11.692Z,6.36
2024-02-07T16:48:38.614Z,6.36
2024-02-07T16:51:05.330Z,6.38
2024-02-07T16:53:31.898Z,6.39
2024-02-07T16:55:58.794Z,6.40
2024-02-07T16:58:25.350Z,6.41
2024-02-07T17:00:51.839Z,6.41
2024-02-07T17:03:18.499Z,6.42
2024-02-07T17:05:45.055Z,6.40
2024-02-07T17:08:11.519Z,6.39
2024-02-07T17:10:40.427Z,6.39
2024-02-07T17:13:08.679Z,6.36
2024-02-07T17:15:35.813Z,6.32
2024-02-07T17:18:02.354Z,6.32
2024-02-07T17:20:28.931Z,6.29
2024-02-07T17:22:56.106Z,6.28
2024-02-07T17:25:22.704Z,6.29
2024-02-07T17:27:49.232Z,6.31
2024-02-07T17:30:24.565Z,6.33
2024-02-07T17:33:01.176Z,6.34
2024-02-07T17:35:27.759Z,6.36
2024-02-07T17:37:55.189Z,6.39
2024-02-07T17:40:22.124Z,6.39
2024-02-07T17:42:48.824Z,6.41
2024-02-07T17:45:18.001Z,6.41
2024-02-07T17:47:49.007Z,6.40
2024-02-07T17:50:16.573Z,6.38
2024-02-07T17:52:43.434Z,6.34
2024-02-07T17:55:10.307Z,6.34
2024-02-07T17:57:36.764Z,6.33
2024-02-07T18:00:03.874Z,6.33
2024-02-07T18:02:30.352Z,6.35
2024-02-07T18:04:56.871Z,6.36
2024-02-07T18:07:23.461Z,6.36
2024-02-07T18:09:50.521Z,6.39
2024-02-07T18:12:16.976Z,6.41
2024-02-07T18:14:44.588Z,6.43
2024-02-07T18:17:11.112Z,6.42
2024-02-07T18:19:43.326Z,6.44
2024-02-07T18:22:13.723Z,6.44
2024-02-07T18:24:40.365Z,6.44
2024-02-07T18:27:07.023Z,6.44
2024-02-07T18:29:33.504Z,6.44
2024-02-07T18:32:00.309Z,6.43
2024-02-07T18:34:27.328Z,6.41
2024-02-07T18:36:54.348Z,6.39
2024-02-07T18:39:22.157Z,6.39
2024-02-07T18:41:52.748Z,6.38
2024-02-07T18:44:20.209Z,6.38
2024-02-07T18:46:46.779Z,6.35
2024-02-07T18:49:13.397Z,6.36
2024-02-07T18:51:40.170Z,6.34
2024-02-07T18:54:07.148Z,6.34
2024-02-07T18:56:33.632Z,6.34
2024-02-07T18:59:01.590Z,6.36
2024-02-07T19:01:28.160Z,6.35
2024-02-07T19:03:55.550Z,6.34
2024-02-07T19:06:22.121Z,6.36
2024-02-07T19:08:49.201Z,6.37
2024-02-07T19:11:16.023Z,6.38
2024-02-07T19:13:42.621Z,6.38
2024-02-07T19:16:09.145Z,6.38
2024-02-07T19:18:35.949Z,6.37
2024-02-07T19:21:02.668Z,6.32
2024-02-07T19:23:29.158Z,6.31
2024-02-07T19:25:58.538Z,6.29
2024-02-07T19:28:25.086Z,6.27
2024-02-07T19:30:51.694Z,6.24
2024-02-07T19:33:18.293Z,6.18
2024-02-07T19:35:44.891Z,6.17
2024-02-07T19:38:11.497Z,6.14
2024-02-07T19:40:38.093Z,6.07
2024-02-07T19:43:04.814Z,6.02
2024-02-07T19:45:31.378Z,6.00
2024-02-07T19:47:58.959Z,5.94
2024-02-07T19:50:25.612Z,5.89
2024-02-07T19:52:52.185Z,5.85
2024-02-07T19:55:18.781Z,5.82
2024-02-07T19:57:45.430Z,5.77
2024-02-07T20:00:12.352Z,5.76
2024-02-07T20:02:39.117Z,5.76
2024-02-07T20:05:06.268Z,5.76
2024-02-07T20:07:32.909Z,5.76
2024-02-07T20:10:04.025Z,5.75
2024-02-07T20:12:31.298Z,5.76
2024-02-07T20:14:59.233Z,5.78
2024-02-07T20:17:25.847Z,5.79
2024-02-07T20:19:52.653Z,5.79
2024-02-07T20:22:19.528Z,5.79
2024-02-07T20:24:46.132Z,5.75
2024-02-07T20:27:12.646Z,5.76
2024-02-07T20:29:39.139Z,5.77
2024-02-07T20:32:06.148Z,5.78
2024-02-07T20:34:32.959Z,5.76
2024-02-07T20:37:00.921Z,5.74
2024-02-07T20:39:30.365Z,5.73
2024-02-07T20:41:57.041Z,5.71
2024-02-07T20:44:25.654Z,5.68
2024-02-07T20:46:52.233Z,5.67
2024-02-07T20:49:18.866Z,5.69
2024-02-07T20:51:46.242Z,5.70
2024-02-07T20:54:12.863Z,5.70
2024-02-07T20:56:42.332Z,5.72
2024-02-07T20:59:08.967Z,5.71
2024-02-07T21:01:35.609Z,5.70
2024-02-07T21:04:02.255Z,5.72
2024-02-07T21:06:29.507Z,5.74
2024-02-07T21:08:58.868Z,5.74
2024-02-07T21:11:25.639Z,5.74
2024-02-07T21:13:52.437Z,5.73
2024-02-07T21:16:19.213Z,5.71
2024-02-07T21:18:45.817Z,5.64
2024-02-07T21:21:16.340Z,5.54
2024-02-07T21:23:43.025Z,5.47
2024-02-07T21:26:09.689Z,5.40
2024-02-07T21:28:36.345Z,5.34
2024-02-07T21:31:02.869Z,5.31
2024-02-07T21:33:30.066Z,5.28
2024-02-07T21:35:56.799Z,5.25
2024-02-07T21:38:24.209Z,5.18
2024-02-07T21:40:52.012Z,5.06
2024-02-07T21:43:18.535Z,5.07
2024-02-07T21:45:45.115Z,5.11
2024-02-07T21:48:12.348Z,5.17
2024-02-07T21:50:38.864Z,5.15
2024-02-07T21:53:05.477Z,5.14
2024-02-07T21:55:32.167Z,5.17
2024-02-07T21:57:58.708Z,5.20
2024-02-07T22:00:25.500Z,5.23
2024-02-07T22:02:51.983Z,5.27
2024-02-07T22:05:18.528Z,5.29
2024-02-07T22:07:45.159Z,5.29
2024-02-07T22:10:11.810Z,5.34
2024-02-07T22:12:38.348Z,5.37
2024-02-07T22:15:05.374Z,5.44
2024-02-07T22:17:31.910Z,5.47
2024-02-07T22:19:58.648Z,5.46
2024-02-07T22:22:25.683Z,5.45
2024-02-07T22:24:52.502Z,5.41
2024-02-07T22:27:18.988Z,5.39
2024-02-07T22:29:45.518Z,5.34
2024-02-07T22:32:13.405Z,5.31
2024-02-07T22:34:40.256Z,5.29
2024-02-07T22:37:09.613Z,5.26
2024-02-07T22:39:36.249Z,5.18
2024-02-07T22:42:03.486Z,5.16
2024-02-07T22:44:30.279Z,5.10
2024-02-07T22:46:57.157Z,5.08
2024-02-07T22:49:23.791Z,5.07
2024-02-07T22:51:53.357Z,5.09
2024-02-07T22:54:20.277Z,5.05
2024-02-07T22:56:47.156Z,5.03
2024-02-07T22:59:13.829Z,5.05
2024-02-07T23:01:40.594Z,5.05
2024-02-07T23:04:09.261Z,5.05
2024-02-07T23:06:37.319Z,5.06
2024-02-07T23:09:05.030Z,5.05
2024-02-07T23:11:31.558Z,5.06
2024-02-07T23:13:59.325Z,5.05
2024-02-07T23:16:26.035Z,5.04
2024-02-07T23:18:52.570Z,5.04
2024-02-07T23:21:19.264Z,5.01
2024-02-07T23:23:45.847Z,5.00
2024-02-07T23:26:12.505Z,5.00
2024-02-07T23:28:39.125Z,5.03
2024-02-07T23:31:05.655Z,5.07
2024-02-07T23:33:32.245Z,5.09
2024-02-07T23:36:00.774Z,5.11
2024-02-07T23:38:27.344Z,5.08
2024-02-07T23:40:53.863Z,5.05
2024-02-07T23:43:20.369Z,5.06
2024-02-07T23:45:46.851Z,5.07
2024-02-07T23:48:13.551Z,5.08
2024-02-07T23:50:40.266Z,5.11
2024-02-07T23:53:06.844Z,5.15
2024-02-07T23:55:33.409Z,5.19
2024-02-07T23:57:59.937Z,5.25
